Time;durP1;ratioP1;P1;durP2;ratioP2;P2;SDS_P1;SDS_P2;PMS_P1;PMS_P2;Temp;Humidity;BMP_temperature;BMP_pressure;BME280_temperature;BME280_humidity;BME280_pressure;Samples;Min_cycle;Max_cycle;Signal;HPM_P1;HPM_P2
2021/11/29 00:00:31;;;;;;;30.77;18.00;;;;;;;1.26;73.41;90780.16;2071547;69;20152;-71
2021/11/29 00:03:03;;;;;;;30.65;18.30;;;;;;;1.29;73.44;90780.31;2071534;69;20155;-69
2021/11/29 00:05:30;;;;;;;31.85;19.38;;;;;;;1.29;73.26;90786.59;2068233;69;20133;-69
2021/11/29 00:07:59;;;;;;;29.17;17.65;;;;;;;1.31;73.22;90792.25;2071653;69;20536;-68
2021/11/29 00:10:26;;;;;;;31.02;17.17;;;;;;;1.06;73.91;90794.81;2071461;69;20540;-67
2021/11/29 00:12:51;;;;;;;27.33;15.45;;;;;;;1.08;73.86;90798.41;2071535;69;20674;-68
2021/11/29 00:15:17;;;;;;;24.67;15.80;;;;;;;1.01;74.54;90797.31;2071388;69;20152;-70
2021/11/29 00:17:43;;;;;;;27.05;15.73;;;;;;;0.70;76.14;90799.44;2071355;69;20263;-67
2021/11/29 00:20:09;;;;;;;29.17;16.40;;;;;;;0.75;76.45;90793.56;2068001;69;20141;-68
2021/11/29 00:22:35;;;;;;;29.98;17.17;;;;;;;0.81;76.73;90793.22;2071607;69;20223;-68
2021/11/29 00:25:01;;;;;;;27.98;15.95;;;;;;;0.98;75.99;90792.97;2071561;69;20140;-67
2021/11/29 00:27:27;;;;;;;33.63;16.70;;;;;;;1.04;75.18;90798.16;2071570;69;20534;-67
2021/11/29 00:29:53;;;;;;;27.33;15.98;;;;;;;1.11;74.70;90805.56;2071490;69;20159;-68
2021/11/29 00:32:18;;;;;;;25.50;16.95;;;;;;;1.09;75.43;90815.75;2071520;69;20156;-67
2021/11/29 00:34:44;;;;;;;28.83;16.50;;;;;;;1.12;74.74;90812.53;2068226;69;20136;-67
2021/11/29 00:37:09;;;;;;;34.10;18.42;;;;;;;0.88;76.46;90819.28;2071500;69;20148;-69
2021/11/29 00:39:35;;;;;;;31.05;18.55;;;;;;;0.98;75.63;90814.41;2071565;69;20600;-67
2021/11/29 00:42:01;;;;;;;30.08;18.00;;;;;;;0.96;75.91;90815.00;2071375;69;20160;-67
2021/11/29 00:44:27;;;;;;;29.67;18.08;;;;;;;0.96;76.04;90817.78;2071423;69;20513;-69
2021/11/29 00:46:54;;;;;;;29.50;17.80;;;;;;;0.91;76.58;90818.81;2071574;69;20148;-67
2021/11/29 00:49:20;;;;;;;29.67;17.98;;;;;;;0.98;76.02;90814.41;2071377;69;20143;-69
2021/11/29 00:51:45;;;;;;;31.42;18.23;;;;;;;1.00;75.15;90815.25;2071261;69;20132;-69
2021/11/29 00:54:11;;;;;;;30.52;18.10;;;;;;;1.03;75.20;90818.88;2071322;69;20540;-68
2021/11/29 00:56:37;;;;;;;31.38;18.42;;;;;;;0.99;75.23;90826.94;2067914;69;20183;-67
2021/11/29 00:59:03;;;;;;;33.65;18.42;;;;;;;0.92;75.83;90833.41;2071505;69;20136;-69
2021/11/29 01:01:29;;;;;;;30.60;17.85;;;;;;;0.78;76.91;90827.66;2071296;69;20593;-69
2021/11/29 01:03:55;;;;;;;31.80;18.13;;;;;;;1.07;75.31;90832.28;2071399;69;20588;-68
2021/11/29 01:06:21;;;;;;;31.45;18.10;;;;;;;1.12;74.80;90829.16;2071478;69;20160;-67
2021/11/29 01:08:46;;;;;;;29.98;17.95;;;;;;;1.02;75.07;90826.47;2071357;69;20160;-67
2021/11/29 01:11:12;;;;;;;31.23;17.60;;;;;;;0.98;75.40;90834.53;2071353;69;20136;-69
2021/11/29 01:13:38;;;;;;;32.10;18.15;;;;;;;1.06;75.01;90830.84;2071380;69;20156;-69
2021/11/29 01:16:05;;;;;;;31.75;17.20;;;;;;;1.01;74.71;90838.88;2071530;69;20140;-67
2021/11/29 01:18:31;;;;;;;29.98;18.48;;;;;;;0.70;76.45;90847.25;2067841;69;20171;-67
2021/11/29 01:20:57;;;;;;;31.08;17.50;;;;;;;0.72;77.09;90841.09;2071379;69;20144;-67
2021/11/29 01:23:23;;;;;;;32.63;18.40;;;;;;;0.62;77.42;90843.94;2068015;69;20128;-67
2021/11/29 01:25:50;;;;;;;29.33;17.45;;;;;;;0.90;76.00;90849.88;2071409;69;20159;-67
2021/11/29 01:28:17;;;;;;;30.33;17.92;;;;;;;1.02;75.33;90851.41;2068080;69;20665;-67
2021/11/29 01:30:43;;;;;;;28.52;17.55;;;;;;;1.00;74.87;90853.31;2071758;69;20179;-68
2021/11/29 01:33:09;;;;;;;31.00;17.33;;;;;;;1.11;74.63;90858.19;2068582;69;20512;-68
2021/11/29 01:35:35;;;;;;;31.65;18.60;;;;;;;1.09;74.61;90851.78;2071903;69;20144;-69
2021/11/29 01:38:00;;;;;;;31.27;17.80;;;;;;;1.16;74.37;90857.13;2068670;69;20178;-69
2021/11/29 01:40:27;;;;;;;28.70;17.25;;;;;;;1.16;74.23;90846.06;2071814;69;20307;-67
2021/11/29 01:42:54;;;;;;;30.40;17.75;;;;;;;1.13;74.62;90854.84;2071964;69;20159;-67
2021/11/29 01:45:20;;;;;;;28.17;17.75;;;;;;;1.21;73.62;90863.66;2071990;69;20148;-68
2021/11/29 01:47:45;;;;;;;32.80;17.63;;;;;;;1.17;73.84;90853.03;2071838;69;20139;-69
2021/11/29 01:50:11;;;;;;;32.47;18.40;;;;;;;0.89;75.52;90853.97;2071751;69;20172;-71
2021/11/29 01:52:37;;;;;;;30.52;18.08;;;;;;;1.06;74.72;90856.50;2068607;69;20152;-68
2021/11/29 01:55:03;;;;;;;29.23;18.20;;;;;;;1.10;75.05;90862.31;2071920;69;20144;-69
2021/11/29 01:57:29;;;;;;;29.65;18.10;;;;;;;1.04;74.75;90855.63;2071791;69;20136;-68
2021/11/29 01:59:54;;;;;;;29.48;18.25;;;;;;;1.07;74.33;90860.72;2068623;69;20143;-68
2021/11/29 02:02:27;;;;;;;29.27;17.77;;;;;;;1.15;74.14;90861.25;2071603;69;20175;-68
2021/11/29 02:04:55;;;;;;;29.83;18.05;;;;;;;1.10;74.24;90862.31;2071646;69;20199;-68
2021/11/29 02:07:20;;;;;;;29.45;17.75;;;;;;;1.15;74.12;90866.06;2068418;69;20175;-67
2021/11/29 02:09:46;;;;;;;32.13;17.88;;;;;;;1.18;73.98;90868.34;2071588;69;20231;-68
2021/11/29 02:12:12;;;;;;;27.52;17.00;;;;;;;1.19;73.75;90871.84;2071746;69;20175;-69
2021/11/29 02:14:38;;;;;;;28.75;17.67;;;;;;;1.21;73.43;90875.47;2068322;69;20600;-70
2021/11/29 02:17:06;;;;;;;29.40;17.80;;;;;;;0.85;75.35;90873.09;2071789;69;20222;-70
2021/11/29 02:19:38;;;;;;;30.08;18.02;;;;;;;0.91;75.29;90876.97;2071490;69;20219;-67
2021/11/29 02:22:04;;;;;;;30.02;18.20;;;;;;;0.91;75.20;90873.50;2071812;69;20156;-67
2021/11/29 02:24:30;;;;;;;30.30;17.83;;;;;;;0.97;74.71;90873.91;2071678;69;20147;-67
2021/11/29 02:26:56;;;;;;;29.67;17.30;;;;;;;1.04;74.33;90870.19;2071811;69;20251;-70
2021/11/29 02:29:21;;;;;;;29.15;17.38;;;;;;;1.07;74.01;90873.84;2068310;69;20623;-69
2021/11/29 02:31:48;;;;;;;30.75;17.70;;;;;;;1.09;73.91;90883.00;2071803;69;20210;-69
2021/11/29 02:34:16;;;;;;;33.03;17.73;;;;;;;0.98;74.41;90878.84;2071614;69;20148;-70
2021/11/29 02:36:42;;;;;;;20.52;12.30;;;;;;;0.97;74.35;90874.63;2068418;69;20225;-70
2021/11/29 02:39:10;;;;;;;8.75;6.10;;;;;;;1.05;73.63;90882.00;2071817;69;20192;-71
2021/11/29 02:41:36;;;;;;;7.28;4.70;;;;;;;0.94;73.88;90877.84;2071943;69;20151;-70
2021/11/29 02:44:04;;;;;;;8.07;5.22;;;;;;;0.79;74.30;90881.75;2071807;69;20175;-71
2021/11/29 02:46:30;;;;;;;20.10;12.18;;;;;;;0.85;74.38;90873.09;2072064;69;20148;-70
2021/11/29 02:48:58;;;;;;;14.55;9.07;;;;;;;0.71;74.97;90890.22;2071811;69;20140;-74
2021/11/29 02:51:23;;;;;;;4.32;3.30;;;;;;;0.91;73.91;90884.56;2071936;69;20168;-69
2021/11/29 02:53:51;;;;;;;3.70;2.80;;;;;;;0.89;73.39;90890.00;2071955;69;20152;-68
2021/11/29 02:56:17;;;;;;;3.67;2.63;;;;;;;0.89;73.26;90890.00;2068753;69;20144;-69
2021/11/29 02:58:43;;;;;;;4.72;3.25;;;;;;;0.85;73.22;90884.91;2071903;69;20144;-71
2021/11/29 03:01:08;;;;;;;4.30;3.03;;;;;;;0.79;73.71;90892.09;2071869;69;20576;-72
2021/11/29 03:03:43;;;;;;;3.83;3.00;;;;;;;0.82;73.38;90897.16;2071774;69;20526;-73
2021/11/29 03:06:08;;;;;;;4.80;3.08;;;;;;;0.86;73.25;90896.72;2071984;69;20148;-69
2021/11/29 03:08:34;;;;;;;5.18;2.90;;;;;;;0.88;72.62;90892.03;2072022;69;20149;-69
2021/11/29 03:10:59;;;;;;;3.85;2.50;;;;;;;0.93;72.57;90902.06;2071893;69;20136;-68
2021/11/29 03:13:25;;;;;;;3.45;2.70;;;;;;;0.96;72.37;90909.19;2068500;69;20587;-69
2021/11/29 03:15:50;;;;;;;3.70;2.65;;;;;;;0.84;72.78;90908.38;2071921;69;20217;-69
2021/11/29 03:18:27;;;;;;;4.65;2.63;;;;;;;0.79;73.16;90917.75;2068507;69;20140;-72
2021/11/29 03:20:53;;;;;;;3.85;2.58;;;;;;;0.84;72.83;90915.97;2071902;69;20171;-68
2021/11/29 03:23:19;;;;;;;2.97;2.40;;;;;;;0.77;73.16;90917.59;2071831;69;20140;-73
2021/11/29 03:25:44;;;;;;;3.47;2.17;;;;;;;0.77;73.22;90918.31;2071866;69;20125;-69
2021/11/29 03:28:13;;;;;;;3.10;2.40;;;;;;;0.72;73.71;90936.00;2068598;69;20144;-68
2021/11/29 03:30:40;;;;;;;3.97;2.70;;;;;;;0.81;73.33;90931.72;2072000;69;20206;-69
2021/11/29 03:33:05;;;;;;;5.47;3.00;;;;;;;0.80;73.02;90926.78;2071844;69;20175;-68
2021/11/29 03:35:31;;;;;;;4.45;2.97;;;;;;;0.79;72.54;90933.66;2068430;69;20199;-69
2021/11/29 03:37:57;;;;;;;4.65;3.05;;;;;;;0.81;72.66;90934.50;2068549;69;20497;-69
2021/11/29 03:40:23;;;;;;;5.53;3.60;;;;;;;0.83;72.72;90942.22;2071977;69;20176;-69
2021/11/29 03:42:48;;;;;;;4.10;3.20;;;;;;;0.79;72.81;90939.19;2072060;69;20230;-69
2021/11/29 03:45:15;;;;;;;5.72;3.95;;;;;;;0.79;73.03;90945.44;2071840;69;20616;-68
2021/11/29 03:47:41;;;;;;;7.35;4.03;;;;;;;0.80;72.90;90943.41;2071840;69;20146;-68
2021/11/29 03:50:07;;;;;;;5.00;3.30;;;;;;;0.82;72.89;90941.47;2071728;69;20632;-69
2021/11/29 03:52:35;;;;;;;5.32;3.42;;;;;;;0.84;72.81;90947.16;2071305;69;20614;-69
2021/11/29 03:55:01;;;;;;;14.55;8.77;;;;;;;0.89;72.68;90951.66;2068408;69;20172;-70
2021/11/29 03:57:26;;;;;;;16.35;10.45;;;;;;;0.77;73.36;90948.78;2071923;69;20159;-71
2021/11/29 03:59:52;;;;;;;22.83;13.10;;;;;;;0.71;74.13;90944.91;2071814;69;20175;-70
2021/11/29 04:02:18;;;;;;;19.05;11.35;;;;;;;0.83;72.88;90936.69;2071712;69;20504;-68
2021/11/29 04:04:44;;;;;;;13.63;8.93;;;;;;;0.76;73.47;90938.31;2071701;69;20156;-69
2021/11/29 04:07:09;;;;;;;12.77;7.45;;;;;;;0.73;73.47;90947.78;2071818;69;20178;-68
2021/11/29 04:09:35;;;;;;;9.20;5.45;;;;;;;0.77;73.31;90950.84;2068445;69;20168;-68
2021/11/29 04:12:02;;;;;;;6.75;4.63;;;;;;;0.76;73.06;90950.13;2071918;69;20229;-71
2021/11/29 04:14:28;;;;;;;13.48;8.07;;;;;;;0.56;74.59;90948.03;2071877;69;20152;-72
2021/11/29 04:16:54;;;;;;;17.30;9.23;;;;;;;0.60;74.16;90954.56;2071813;69;20148;-69
2021/11/29 04:19:19;;;;;;;14.93;8.27;;;;;;;0.78;73.35;90966.16;2071650;69;20661;-73
2021/11/29 04:21:46;;;;;;;18.33;11.27;;;;;;;0.73;73.41;90961.63;2071801;69;20147;-74
2021/11/29 04:24:13;;;;;;;25.75;13.52;;;;;;;0.68;73.63;90965.44;2071678;69;20156;-71
2021/11/29 04:26:41;;;;;;;22.80;13.65;;;;;;;0.65;73.67;90963.88;2065597;69;20513;-70
2021/11/29 04:29:17;;;;;;;18.95;11.35;;;;;;;0.72;73.50;90958.16;2071743;69;20615;-68
2021/11/29 04:31:43;;;;;;;15.35;9.73;;;;;;;0.76;73.29;90963.25;2071742;69;20152;-69
2021/11/29 04:34:08;;;;;;;13.75;8.73;;;;;;;0.76;73.10;90966.00;2071728;69;20587;-68
2021/11/29 04:36:34;;;;;;;13.20;8.55;;;;;;;0.72;73.52;90968.50;2068439;69;20175;-72
2021/11/29 04:39:00;;;;;;;13.70;7.93;;;;;;;0.73;73.26;90969.94;2068578;69;20171;-69
2021/11/29 04:41:27;;;;;;;19.10;11.02;;;;;;;0.53;74.38;90966.53;2071867;69;20136;-69
2021/11/29 04:43:52;;;;;;;30.60;16.40;;;;;;;0.26;76.38;90966.75;2071758;69;20599;-69
2021/11/29 04:46:18;;;;;;;30.70;17.17;;;;;;;0.58;74.82;90968.25;2071761;69;20151;-68
2021/11/29 04:48:44;;;;;;;30.58;16.65;;;;;;;0.64;74.51;90962.41;2071559;69;20152;-73
2021/11/29 04:51:10;;;;;;;49.80;21.35;;;;;;;0.56;74.66;90964.63;2068408;69;20600;-73
2021/11/29 04:53:36;;;;;;;29.73;15.07;;;;;;;0.58;74.31;90973.06;2071828;69;20217;-73
2021/11/29 04:56:03;;;;;;;18.20;10.93;;;;;;;0.62;73.97;90970.59;2071651;69;20144;-73
2021/11/29 04:58:29;;;;;;;14.70;9.27;;;;;;;0.65;73.68;90980.50;2071689;69;20715;-68
2021/11/29 05:00:55;;;;;;;13.73;8.40;;;;;;;0.68;73.41;90987.59;2071619;69;20144;-70
2021/11/29 05:03:20;;;;;;;8.32;5.55;;;;;;;0.64;73.14;90993.63;2071520;69;20164;-70
2021/11/29 05:05:47;;;;;;;8.73;5.38;;;;;;;0.65;73.04;91000.59;2071505;69;20151;-68
2021/11/29 05:08:13;;;;;;;9.43;6.07;;;;;;;0.66;72.84;91001.31;2071665;69;20156;-68
2021/11/29 05:10:38;;;;;;;6.95;4.95;;;;;;;0.62;73.09;91006.59;2071646;69;20151;-70
2021/11/29 05:13:04;;;;;;;10.10;5.40;;;;;;;0.61;73.05;91010.69;2071781;69;20140;-70
2021/11/29 05:15:30;;;;;;;6.03;3.95;;;;;;;0.64;73.27;91015.03;2071624;69;20141;-69
2021/11/29 05:17:55;;;;;;;6.25;4.50;;;;;;;0.58;73.72;91017.38;2071638;69;20163;-68
2021/11/29 05:20:22;;;;;;;5.65;3.85;;;;;;;0.62;73.44;91015.63;2071503;69;20578;-69
2021/11/29 05:22:49;;;;;;;4.13;3.38;;;;;;;0.70;73.30;91024.50;2068401;69;20156;-72
2021/11/29 05:25:14;;;;;;;6.72;4.80;;;;;;;0.59;73.38;91027.84;2071648;69;20156;-73
2021/11/29 05:27:40;;;;;;;8.85;5.95;;;;;;;0.61;73.55;91035.59;2071647;69;20509;-72
2021/11/29 05:30:07;;;;;;;13.52;8.27;;;;;;;0.63;73.64;91036.44;2071567;69;20595;-69
2021/11/29 05:32:33;;;;;;;30.50;17.00;;;;;;;0.70;73.67;91037.63;2071459;69;20140;-68
2021/11/29 05:34:59;;;;;;;27.23;16.88;;;;;;;0.62;73.82;91039.81;2071354;69;20214;-68
2021/11/29 05:37:24;;;;;;;28.52;17.75;;;;;;;0.65;73.98;91049.72;2071440;69;20148;-69
2021/11/29 05:39:51;;;;;;;19.95;12.57;;;;;;;0.62;73.74;91048.84;2071485;69;20241;-69
2021/11/29 05:42:17;;;;;;;12.48;8.07;;;;;;;0.68;73.55;91059.63;2071455;69;20175;-68
2021/11/29 05:44:43;;;;;;;10.43;6.82;;;;;;;0.67;73.80;91053.34;2071405;69;20577;-71
2021/11/29 05:47:09;;;;;;;9.02;6.30;;;;;;;0.60;73.97;91056.31;2071533;69;20144;-69
2021/11/29 05:49:35;;;;;;;8.32;5.50;;;;;;;0.77;73.40;91070.66;2071378;69;20240;-68
2021/11/29 05:52:00;;;;;;;7.07;4.97;;;;;;;0.65;73.90;91069.84;2071429;69;20211;-68
2021/11/29 05:54:27;;;;;;;7.15;4.80;;;;;;;0.75;73.28;91081.63;2071412;69;20148;-67
2021/11/29 05:56:53;;;;;;;6.88;4.38;;;;;;;0.56;73.70;91076.13;2071493;69;20140;-70
2021/11/29 05:59:21;;;;;;;7.82;4.60;;;;;;;0.72;73.57;91079.28;2071399;69;20186;-73
2021/11/29 06:01:49;;;;;;;6.25;4.13;;;;;;;0.75;73.41;91086.44;2071337;69;20165;-74
2021/11/29 06:04:14;;;;;;;5.80;3.88;;;;;;;0.70;73.65;91087.47;2071183;69;20170;-69
2021/11/29 06:06:40;;;;;;;6.43;4.30;;;;;;;0.65;73.71;91086.47;2071389;69;20599;-72
2021/11/29 06:09:06;;;;;;;6.90;4.70;;;;;;;0.54;73.90;91089.09;2071380;69;20139;-72
2021/11/29 06:11:31;;;;;;;21.48;10.20;;;;;;;0.30;75.42;91096.41;2071416;69;20160;-69
2021/11/29 06:13:57;;;;;;;24.90;12.48;;;;;;;0.62;74.61;91100.75;2071383;69;20176;-70
2021/11/29 06:16:22;;;;;;;15.82;8.35;;;;;;;0.74;73.77;91096.06;2071485;69;20124;-69
2021/11/29 06:18:48;;;;;;;15.48;8.82;;;;;;;0.62;74.28;91101.47;2071874;69;20233;-71
2021/11/29 06:21:14;;;;;;;13.20;7.22;;;;;;;0.66;73.97;91110.06;2071865;69;20151;-69
2021/11/29 06:23:39;;;;;;;10.45;6.40;;;;;;;0.62;74.32;91112.53;2071851;69;20264;-73
2021/11/29 06:26:05;;;;;;;9.20;5.82;;;;;;;0.59;74.82;91112.97;2071893;69;20164;-74
2021/11/29 06:28:31;;;;;;;8.43;5.30;;;;;;;0.73;74.19;91125.06;2071958;69;20312;-68
2021/11/29 06:30:58;;;;;;;9.77;5.68;;;;;;;0.74;73.63;91123.75;2071913;69;20144;-71
2021/11/29 06:33:24;;;;;;;17.38;8.50;;;;;;;0.78;73.77;91137.91;2071848;69;20685;-70
2021/11/29 06:35:51;;;;;;;12.02;5.82;;;;;;;0.83;73.54;91136.13;2071917;69;20230;-69
2021/11/29 06:38:17;;;;;;;8.32;4.90;;;;;;;0.81;73.69;91133.94;2068534;69;20151;-70
2021/11/29 06:40:49;;;;;;;7.85;4.20;;;;;;;0.75;74.19;91148.09;2068485;69;20137;-71
2021/11/29 06:43:21;;;;;;;6.50;4.20;;;;;;;0.82;73.85;91143.69;2071780;69;20150;-69
2021/11/29 06:45:49;;;;;;;9.05;4.25;;;;;;;0.78;74.05;91146.22;2071841;69;20756;-69
2021/11/29 06:48:15;;;;;;;5.95;3.80;;;;;;;0.75;74.04;91152.91;2071696;69;20152;-70
2021/11/29 06:50:41;;;;;;;5.80;3.88;;;;;;;0.76;74.11;91155.09;2071803;69;20211;-70
2021/11/29 06:53:07;;;;;;;4.03;2.97;;;;;;;0.82;73.69;91149.25;2071719;69;20256;-70
2021/11/29 06:55:33;;;;;;;5.93;3.80;;;;;;;0.84;73.58;91154.22;2071688;69;20210;-71
2021/11/29 06:58:01;;;;;;;14.13;8.45;;;;;;;0.73;74.10;91156.28;2071790;69;20611;-74
2021/11/29 07:00:26;;;;;;;13.73;8.43;;;;;;;0.63;74.63;91161.06;2071772;69;20183;-70
2021/11/29 07:02:53;;;;;;;9.93;6.68;;;;;;;0.80;73.77;91165.72;2071736;69;20172;-68
2021/11/29 07:05:20;;;;;;;8.70;5.65;;;;;;;0.85;73.94;91180.59;2071606;69;20227;-69
2021/11/29 07:07:49;;;;;;;11.85;7.60;;;;;;;0.80;74.25;91176.09;2068402;69;20135;-74
2021/11/29 07:10:15;;;;;;;11.77;6.90;;;;;;;0.92;73.92;91185.25;2071736;69;20589;-72
2021/11/29 07:12:41;;;;;;;11.73;6.88;;;;;;;0.93;73.89;91186.72;2068581;69;20140;-72
2021/11/29 07:15:09;;;;;;;8.23;5.07;;;;;;;0.90;73.93;91194.16;2071750;69;20125;-73
2021/11/29 07:17:35;;;;;;;5.45;3.97;;;;;;;0.84;73.93;91204.06;2071620;69;20553;-70
2021/11/29 07:20:01;;;;;;;16.08;9.82;;;;;;;0.60;74.88;91203.78;2065499;69;20148;-70
2021/11/29 07:22:26;;;;;;;18.73;10.27;;;;;;;0.53;75.28;91209.47;2068429;69;20145;-73
2021/11/29 07:24:53;;;;;;;24.77;14.18;;;;;;;0.62;75.91;91219.81;2068365;69;20148;-72
2021/11/29 07:27:20;;;;;;;28.85;16.45;;;;;;;0.89;74.97;91214.13;2071712;69;20179;-73
2021/11/29 07:29:47;;;;;;;25.17;16.58;;;;;;;0.94;74.47;91216.59;2071546;69;20142;-74
2021/11/29 07:32:12;;;;;;;29.13;17.08;;;;;;;0.98;74.76;91233.53;2071671;69;20140;-73
2021/11/29 07:34:38;;;;;;;25.63;16.75;;;;;;;1.08;74.44;91241.81;2068262;69;20523;-68
2021/11/29 07:37:04;;;;;;;25.45;15.38;;;;;;;1.05;74.26;91240.22;2071712;69;20210;-70
2021/11/29 07:39:30;;;;;;;20.90;12.57;;;;;;;1.03;74.23;91240.06;2068411;69;20128;-69
2021/11/29 07:41:58;;;;;;;21.15;12.48;;;;;;;1.12;74.20;91247.66;2071786;69;20136;-69
2021/11/29 07:44:24;;;;;;;19.45;11.52;;;;;;;0.94;74.14;91246.34;2068288;69;20148;-70
2021/11/29 07:46:49;;;;;;;21.02;13.35;;;;;;;0.91;74.37;91255.81;2071694;69;20232;-70
2021/11/29 07:49:15;;;;;;;22.35;13.77;;;;;;;1.08;74.46;91257.72;2068158;69;20160;-72
2021/11/29 07:51:41;;;;;;;23.20;14.63;;;;;;;1.04;74.59;91269.25;2071726;69;20267;-72
2021/11/29 07:54:06;;;;;;;21.20;13.13;;;;;;;1.16;74.72;91270.13;2071816;69;20235;-76
2021/11/29 07:56:32;;;;;;;20.08;12.18;;;;;;;1.12;74.83;91269.81;2071888;69;20676;-71
2021/11/29 07:58:58;;;;;;;19.88;12.25;;;;;;;1.27;74.48;91274.34;2071805;69;20142;-73
2021/11/29 08:01:23;;;;;;;19.42;12.15;;;;;;;1.26;74.60;91276.38;2071804;69;20152;-67
2021/11/29 08:03:49;;;;;;;19.75;12.52;;;;;;;1.29;74.40;91282.81;2071510;69;20136;-68
2021/11/29 08:06:15;;;;;;;19.42;11.73;;;;;;;1.31;74.56;91282.22;2071741;69;20219;-70
2021/11/29 08:08:45;;;;;;;17.33;10.85;;;;;;;1.27;74.77;91285.41;2071788;69;20202;-68
2021/11/29 08:11:10;;;;;;;16.80;10.57;;;;;;;1.43;74.14;91294.91;2071912;69;20156;-68
2021/11/29 08:13:36;;;;;;;18.88;11.73;;;;;;;1.38;73.90;91301.47;2071890;69;20140;-73
2021/11/29 08:16:02;;;;;;;19.20;11.52;;;;;;;1.42;73.77;91295.47;2071983;69;20697;-67
2021/11/29 08:18:28;;;;;;;20.88;10.90;;;;;;;1.08;74.22;91304.84;2071649;69;20153;-69
2021/11/29 08:20:53;;;;;;;14.80;9.82;;;;;;;1.26;74.31;91300.59;2071869;69;20149;-72
2021/11/29 08:23:19;;;;;;;20.02;11.88;;;;;;;1.48;73.81;91307.00;2071805;69;20596;-72
2021/11/29 08:25:45;;;;;;;30.95;17.08;;;;;;;1.56;74.06;91302.03;2071753;69;20148;-69
2021/11/29 08:28:12;;;;;;;28.13;15.75;;;;;;;1.59;73.88;91309.16;2071694;69;20133;-70
2021/11/29 08:30:39;;;;;;;25.17;14.35;;;;;;;1.71;73.83;91312.06;2068428;69;20152;-74
2021/11/29 08:33:05;;;;;;;17.48;10.57;;;;;;;1.86;73.03;91319.34;2071734;69;20215;-68
2021/11/29 08:35:31;;;;;;;15.10;10.15;;;;;;;1.95;73.37;91324.13;2071615;69;20156;-68
2021/11/29 08:37:58;;;;;;;20.48;11.02;;;;;;;1.97;73.12;91325.00;2071734;69;20151;-68
2021/11/29 08:40:30;;;;;;;17.90;9.90;;;;;;;2.19;71.76;91325.06;2071713;69;20206;-69
2021/11/29 08:42:58;;;;;;;14.10;8.65;;;;;;;1.46;72.67;91327.00;2068253;69;20140;-70
2021/11/29 08:45:25;;;;;;;11.23;7.20;;;;;;;1.59;73.11;91334.13;2071653;69;20179;-69
2021/11/29 08:47:51;;;;;;;14.60;8.93;;;;;;;1.88;73.01;91338.91;2065662;69;20214;-69
2021/11/29 08:50:17;;;;;;;13.13;8.55;;;;;;;2.02;71.95;91342.69;2071548;69;20238;-69
2021/11/29 08:52:44;;;;;;;13.95;8.35;;;;;;;2.10;71.89;91334.16;2071644;69;20596;-70
2021/11/29 08:55:10;;;;;;;15.57;9.27;;;;;;;2.00;71.99;91339.75;2071599;69;20131;-73
2021/11/29 08:57:37;;;;;;;14.77;9.10;;;;;;;1.96;72.15;91342.97;2071146;69;20137;-71
2021/11/29 09:00:10;;;;;;;14.27;9.25;;;;;;;1.95;71.89;91349.13;2071561;69;20132;-70
2021/11/29 09:02:36;;;;;;;14.38;8.52;;;;;;;2.17;71.13;91355.50;2071510;69;20144;-73
2021/11/29 09:05:04;;;;;;;14.48;9.60;;;;;;;2.09;71.09;91357.69;2071521;69;20168;-74
2021/11/29 09:07:30;;;;;;;15.95;10.35;;;;;;;2.12;71.83;91371.13;2071175;69;20228;-69
2021/11/29 09:09:57;;;;;;;17.63;9.70;;;;;;;2.07;71.83;91361.06;2065380;69;20219;-69
2021/11/29 09:12:24;;;;;;;15.25;9.77;;;;;;;2.61;70.01;91370.94;2070974;69;20144;-68
2021/11/29 09:14:49;;;;;;;19.52;11.00;;;;;;;2.76;69.66;91373.38;2071498;69;20147;-72
2021/11/29 09:17:15;;;;;;;25.13;12.88;;;;;;;2.69;69.75;91380.56;2071488;69;20148;-69
2021/11/29 09:19:41;;;;;;;24.88;13.88;;;;;;;2.93;69.12;91387.06;2071397;69;20551;-71
2021/11/29 09:22:06;;;;;;;24.27;13.63;;;;;;;2.33;69.90;91392.69;2071560;69;20590;-69
2021/11/29 09:24:32;;;;;;;24.25;12.43;;;;;;;2.17;70.55;91397.13;2071383;69;20556;-68
2021/11/29 09:27:00;;;;;;;17.90;10.95;;;;;;;2.64;70.05;91403.13;2071488;69;20604;-68
2021/11/29 09:29:26;;;;;;;10.07;6.03;;;;;;;2.04;69.49;91404.59;2071439;69;20140;-68
2021/11/29 09:31:51;;;;;;;8.10;5.60;;;;;;;1.66;71.88;91408.16;2071435;69;20191;-69
2021/11/29 09:34:17;;;;;;;7.75;4.70;;;;;;;1.67;70.36;91412.38;2068070;69;20175;-73
2021/11/29 09:36:43;;;;;;;6.28;4.18;;;;;;;1.90;69.95;91420.25;2071427;69;20134;-72
2021/11/29 09:39:08;;;;;;;8.75;5.38;;;;;;;1.69;70.82;91420.84;2071551;69;20148;-70
2021/11/29 09:41:34;;;;;;;5.90;4.60;;;;;;;2.30;70.29;91416.09;2071429;69;20137;-73
2021/11/29 09:44:02;;;;;;;8.30;4.60;;;;;;;2.75;68.90;91419.91;2068067;69;20227;-71
2021/11/29 09:46:29;;;;;;;7.22;4.22;;;;;;;2.89;68.19;91420.13;2071431;69;20168;-69
2021/11/29 09:48:55;;;;;;;4.55;3.47;;;;;;;2.13;67.05;91430.88;2071402;69;20158;-69
2021/11/29 09:51:21;;;;;;;5.43;3.25;;;;;;;1.91;67.93;91435.59;2071708;69;20205;-69
2021/11/29 09:53:46;;;;;;;4.22;3.17;;;;;;;2.35;68.11;91433.78;2072116;69;20512;-69
2021/11/29 09:56:12;;;;;;;4.85;3.33;;;;;;;2.42;66.63;91432.88;2071984;69;20231;-69
2021/11/29 09:58:38;;;;;;;4.57;3.22;;;;;;;2.67;67.04;91427.69;2072023;69;20231;-69
2021/11/29 10:01:06;;;;;;;4.55;3.20;;;;;;;2.68;66.87;91440.25;2071900;69;20155;-69
2021/11/29 10:03:32;;;;;;;5.00;3.15;;;;;;;2.84;66.45;91431.56;2071855;69;20148;-70
2021/11/29 10:05:58;;;;;;;3.95;2.60;;;;;;;2.87;66.17;91436.66;2071895;69;20139;-71
2021/11/29 10:08:36;;;;;;;2.97;2.30;;;;;;;2.67;65.99;91432.50;2071908;69;20148;-70
2021/11/29 10:11:11;;;;;;;3.33;2.40;;;;;;;2.83;66.23;91439.16;2071950;69;20344;-71
2021/11/29 10:14:01;;;;;;;2.90;2.20;;;;;;;3.02;65.31;91449.47;2071971;69;20141;-74
2021/11/29 10:16:46;;;;;;;5.60;2.28;;;;;;;3.04;65.05;91444.78;2068653;69;20160;-73
2021/11/29 10:19:23;;;;;;;3.05;1.80;;;;;;;2.94;64.47;91444.09;2071853;69;20175;-70
2021/11/29 10:21:50;;;;;;;2.30;1.80;;;;;;;3.04;63.06;91444.06;2071849;69;20236;-69
2021/11/29 10:24:19;;;;;;;3.08;2.20;;;;;;;2.91;63.85;91447.34;2071827;69;20159;-74
2021/11/29 10:26:54;;;;;;;4.38;2.00;;;;;;;3.20;64.51;91445.13;2071876;69;20151;-70
2021/11/29 10:29:26;;;;;;;2.35;1.90;;;;;;;3.44;63.44;91442.53;2071864;69;20215;-74
2021/11/29 10:31:54;;;;;;;2.67;1.88;;;;;;;3.61;61.38;91445.03;2071840;69;20643;-73
2021/11/29 10:34:27;;;;;;;2.53;1.77;;;;;;;3.98;61.67;91448.13;2071920;69;20171;-68
2021/11/29 10:36:56;;;;;;;2.13;1.50;;;;;;;4.68;61.73;91447.63;2071997;69;20184;-72
2021/11/29 10:39:24;;;;;;;10.35;5.63;;;;;;;4.81;59.88;91452.63;2071929;69;20317;-67
2021/11/29 10:41:55;;;;;;;13.18;7.57;;;;;;;4.87;58.68;91446.69;2071848;69;20160;-70
2021/11/29 10:44:24;;;;;;;5.05;3.22;;;;;;;6.18;56.49;91452.25;2071898;69;20315;-70
2021/11/29 10:46:53;;;;;;;4.45;2.90;;;;;;;6.57;56.34;91457.94;2071884;69;20580;-69
2021/11/29 10:49:21;;;;;;;4.45;3.92;;;;;;;6.13;54.81;91449.84;2071646;69;20636;-71
2021/11/29 10:51:51;;;;;;;5.55;4.57;;;;;;;5.84;54.48;91446.13;2068450;69;20565;-69
2021/11/29 10:54:28;;;;;;;5.28;3.80;;;;;;;6.33;54.11;91457.31;2071827;69;20160;-69
2021/11/29 10:56:56;;;;;;;6.25;4.60;;;;;;;6.20;54.02;91457.97;2071908;69;20144;-69
2021/11/29 10:59:25;;;;;;;9.50;5.38;;;;;;;5.87;54.41;91466.53;2071784;69;20314;-70
2021/11/29 11:01:54;;;;;;;6.53;4.97;;;;;;;5.37;54.35;91461.50;2071838;69;20156;-72
2021/11/29 11:04:25;;;;;;;5.65;4.30;;;;;;;5.76;54.87;91465.22;2071510;69;20595;-71
2021/11/29 11:06:57;;;;;;;4.78;3.80;;;;;;;5.89;54.36;91466.66;2071819;69;20258;-70
2021/11/29 11:09:32;;;;;;;6.95;4.65;;;;;;;5.77;55.32;91472.28;2071797;69;20675;-72
2021/11/29 11:12:01;;;;;;;12.93;7.85;;;;;;;5.54;55.14;91484.19;2071776;69;20140;-73
2021/11/29 11:14:57;;;;;;;9.65;6.32;;;;;;;5.48;56.13;91488.69;2068361;69;20221;-71
2021/11/29 11:17:28;;;;;;;9.30;6.35;;;;;;;5.35;57.17;91490.72;2054339;69;20201;-68
2021/11/29 11:20:03;;;;;;;14.13;7.95;;;;;;;5.27;57.28;91490.25;2051407;70;20141;-68
2021/11/29 11:22:37;;;;;;;11.95;6.88;;;;;;;4.98;56.90;91493.38;2054404;69;20153;-68
2021/11/29 11:25:09;;;;;;;9.73;6.15;;;;;;;4.96;57.56;91495.31;2055827;69;20178;-70
2021/11/29 11:27:38;;;;;;;15.00;8.02;;;;;;;4.70;58.44;91491.63;2054425;70;20524;-72
2021/11/29 11:30:12;;;;;;;21.02;8.55;;;;;;;3.74;60.01;91497.38;2054428;70;20521;-68
2021/11/29 11:33:02;;;;;;;14.77;7.07;;;;;;;4.71;59.39;91502.16;2054458;69;20146;-69